Time;durP1;ratioP1;P1;durP2;ratioP2;P2;SDS_P1;SDS_P2;PMS_P1;PMS_P2;Temp;Humidity;BMP_temperature;BMP_pressure;BME280_temperature;BME280_humidity;BME280_pressure;Samples;Min_cycle;Max_cycle;Signal;HPM_P1;HPM_P2
2023/07/03 00:02:08;;;;;;;14.37;8.80;;;23.10;54.20;;;;;;5046085;28;20204;-73
2023/07/03 00:04:37;;;;;;;13.40;8.83;;;23.10;54.20;;;;;;5039393;28;20217;-73
2023/07/03 00:07:05;;;;;;;13.33;8.43;;;23.10;54.50;;;;;;5051943;28;20213;-73
2023/07/03 00:09:32;;;;;;;12.73;8.83;;;23.00;54.90;;;;;;5052521;28;20558;-73
2023/07/03 00:11:59;;;;;;;14.70;8.90;;;23.00;55.10;;;;;;5042823;28;20681;-74
2023/07/03 00:14:25;;;;;;;13.93;8.53;;;23.00;55.20;;;;;;5052721;28;20206;-73
2023/07/03 00:16:52;;;;;;;13.90;8.23;;;23.00;55.40;;;;;;5052376;28;20243;-73
2023/07/03 00:19:26;;;;;;;14.07;8.63;;;23.00;55.20;;;;;;5060089;28;20201;-73
2023/07/03 00:21:59;;;;;;;13.57;8.97;;;23.00;55.60;;;;;;5035086;28;20202;-73
2023/07/03 00:24:25;;;;;;;13.63;9.30;;;23.00;55.40;;;;;;5032275;28;20198;-73
2023/07/03 00:26:52;;;;;;;12.20;8.27;;;23.10;55.50;;;;;;5036659;28;20202;-73
2023/07/03 00:29:19;;;;;;;14.70;8.77;;;23.00;55.50;;;;;;5069073;28;20637;-73
2023/07/03 00:31:46;;;;;;;12.70;9.07;;;23.00;55.30;;;;;;5053572;28;20225;-73
2023/07/03 00:34:13;;;;;;;15.33;8.47;;;23.00;55.30;;;;;;5052154;28;20627;-73
2023/07/03 00:36:40;;;;;;;14.43;8.23;;;23.00;54.80;;;;;;5045000;28;20195;-73
2023/07/03 00:39:08;;;;;;;15.17;9.00;;;23.00;54.60;;;;;;5048422;28;20197;-73
2023/07/03 00:41:35;;;;;;;15.40;9.03;;;23.00;54.60;;;;;;5042715;28;20213;-73
2023/07/03 00:44:02;;;;;;;11.57;8.03;;;23.00;54.40;;;;;;5040024;28;20609;-73
2023/07/03 00:46:30;;;;;;;12.53;8.27;;;23.00;54.20;;;;;;5038215;28;20225;-73
2023/07/03 00:48:56;;;;;;;11.57;7.73;;;23.00;54.00;;;;;;5034540;28;20670;-73
2023/07/03 00:51:23;;;;;;;14.00;8.77;;;23.00;54.10;;;;;;5041168;28;20225;-73
2023/07/03 00:53:50;;;;;;;15.30;8.77;;;23.00;54.00;;;;;;5051203;28;20205;-74
2023/07/03 00:56:18;;;;;;;14.00;8.67;;;22.90;54.00;;;;;;5051183;28;20198;-75
2023/07/03 00:58:45;;;;;;;15.23;8.60;;;22.90;54.10;;;;;;5052195;28;20842;-74
2023/07/03 01:01:20;;;;;;;14.00;8.90;;;22.80;53.90;;;;;;5037693;28;20207;-73
2023/07/03 01:03:57;;;;;;;15.10;9.53;;;22.80;54.00;;;;;;5036280;28;20194;-73
2023/07/03 01:06:28;;;;;;;15.93;9.13;;;22.70;54.00;;;;;;5042778;28;20210;-73
2023/07/03 01:08:59;;;;;;;13.43;8.57;;;22.70;54.10;;;;;;5051440;28;20308;-73
2023/07/03 01:11:28;;;;;;;15.70;8.83;;;22.70;54.20;;;;;;5046749;28;20241;-74
2023/07/03 01:13:58;;;;;;;15.97;9.13;;;22.60;54.20;;;;;;5031485;28;20568;-73
2023/07/03 01:16:25;;;;;;;14.40;9.50;;;22.60;54.30;;;;;;5059045;28;20210;-74
2023/07/03 01:18:53;;;;;;;16.73;9.60;;;22.60;54.40;;;;;;5050256;28;20213;-73
2023/07/03 01:21:24;;;;;;;14.73;9.60;;;22.60;54.40;;;;;;5031118;28;20218;-74
2023/07/03 01:23:57;;;;;;;17.30;9.43;;;22.60;54.40;;;;;;5031278;28;20229;-73
2023/07/03 01:26:27;;;;;;;12.37;8.33;;;22.70;54.40;;;;;;5055857;28;20213;-73
2023/07/03 01:28:59;;;;;;;14.33;9.07;;;22.70;54.30;;;;;;5066650;28;20214;-73
2023/07/03 01:31:30;;;;;;;15.53;8.80;;;22.70;54.50;;;;;;5050072;28;20584;-73
2023/07/03 01:33:59;;;;;;;15.97;8.57;;;22.70;54.50;;;;;;5051888;28;20247;-74
2023/07/03 01:36:28;;;;;;;12.87;8.80;;;22.60;54.60;;;;;;5043512;28;20696;-74
2023/07/03 01:38:56;;;;;;;14.60;7.90;;;22.70;54.60;;;;;;5035876;28;20198;-74
2023/07/03 01:41:24;;;;;;;13.27;8.90;;;22.70;54.50;;;;;;5029375;28;20208;-73
2023/07/03 01:43:52;;;;;;;14.77;8.83;;;22.70;54.50;;;;;;5050075;28;20201;-73
2023/07/03 01:46:19;;;;;;;14.70;8.43;;;22.70;54.40;;;;;;5044016;28;20676;-72
2023/07/03 01:48:46;;;;;;;13.53;8.40;;;22.70;54.40;;;;;;5040174;28;20205;-73
2023/07/03 01:51:21;;;;;;;13.37;8.43;;;22.60;54.40;;;;;;5042084;28;20292;-73
2023/07/03 01:53:52;;;;;;;12.40;8.37;;;22.60;54.40;;;;;;5035128;28;20212;-73
2023/07/03 01:56:22;;;;;;;17.57;9.10;;;22.60;54.40;;;;;;5037412;28;20198;-72
2023/07/03 01:58:52;;;;;;;14.80;8.13;;;22.70;54.30;;;;;;5037444;28;20195;-73
2023/07/03 02:01:27;;;;;;;13.63;8.87;;;22.70;54.20;;;;;;5035588;28;20210;-74
2023/07/03 02:03:58;;;;;;;13.67;7.93;;;22.70;54.10;;;;;;5038866;28;20201;-73
2023/07/03 02:06:33;;;;;;;13.90;8.40;;;22.70;54.20;;;;;;5042389;28;20201;-73
2023/07/03 02:09:05;;;;;;;15.60;8.13;;;22.80;54.10;;;;;;5035732;28;20222;-73
2023/07/03 02:11:32;;;;;;;14.57;8.30;;;22.70;54.00;;;;;;5033283;28;20221;-73
2023/07/03 02:14:00;;;;;;;14.17;8.43;;;22.80;54.10;;;;;;5036927;28;20205;-72
2023/07/03 02:16:29;;;;;;;12.80;8.37;;;22.70;53.90;;;;;;5033810;28;20202;-73
2023/07/03 02:18:56;;;;;;;14.97;8.90;;;22.80;54.00;;;;;;5030288;28;20877;-73
2023/07/03 02:21:27;;;;;;;12.20;8.27;;;22.80;54.10;;;;;;5034107;28;20190;-73
2023/07/03 02:23:54;;;;;;;16.07;8.50;;;22.80;54.00;;;;;;5033701;28;20202;-73
2023/07/03 02:26:21;;;;;;;13.47;8.40;;;22.70;54.10;;;;;;5036920;28;20230;-74
2023/07/03 02:28:48;;;;;;;13.70;8.33;;;22.80;54.20;;;;;;5035684;28;20198;-73
2023/07/03 02:31:16;;;;;;;11.73;7.83;;;22.70;54.20;;;;;;5036789;28;20706;-72
2023/07/03 02:33:43;;;;;;;15.33;7.87;;;22.70;54.30;;;;;;5042638;28;20217;-72
2023/07/03 02:36:09;;;;;;;15.70;8.63;;;22.70;54.40;;;;;;5034507;28;20209;-73
2023/07/03 02:38:36;;;;;;;14.63;7.77;;;22.70;54.70;;;;;;5034968;28;20216;-73
2023/07/03 02:41:03;;;;;;;12.00;7.73;;;22.70;54.70;;;;;;5035984;28;20198;-72
2023/07/03 02:43:30;;;;;;;15.60;8.20;;;22.70;54.80;;;;;;5037555;28;20214;-72
2023/07/03 02:46:03;;;;;;;16.10;8.70;;;22.70;54.70;;;;;;5036794;28;20541;-73
2023/07/03 02:48:31;;;;;;;16.40;9.03;;;22.70;54.90;;;;;;5032895;28;20194;-73
2023/07/03 02:50:58;;;;;;;16.33;8.03;;;22.70;55.00;;;;;;5044167;28;20234;-73
2023/07/03 02:53:25;;;;;;;14.07;8.70;;;22.60;55.50;;;;;;5051946;28;20202;-71
2023/07/03 02:55:54;;;;;;;16.20;8.47;;;22.70;55.20;;;;;;5050059;28;20220;-72
2023/07/03 02:58:21;;;;;;;16.07;8.97;;;22.60;55.20;;;;;;5049814;28;20208;-72
2023/07/03 03:00:48;;;;;;;14.27;8.27;;;22.50;55.40;;;;;;5034678;28;20219;-73
2023/07/03 03:03:14;;;;;;;16.00;8.43;;;22.60;55.50;;;;;;5061389;28;20673;-73
2023/07/03 03:05:43;;;;;;;14.53;8.27;;;22.60;55.50;;;;;;5070708;28;20201;-73
2023/07/03 03:08:11;;;;;;;11.03;7.87;;;22.70;56.10;;;;;;5069609;28;20213;-73
2023/07/03 03:10:38;;;;;;;14.70;8.23;;;22.80;55.40;;;;;;5041630;28;20268;-73
2023/07/03 03:13:05;;;;;;;13.93;9.20;;;22.80;55.40;;;;;;5062647;28;20209;-73
2023/07/03 03:15:35;;;;;;;15.67;9.50;;;22.80;55.20;;;;;;5073072;28;20197;-73
2023/07/03 03:18:02;;;;;;;14.90;8.47;;;22.80;55.40;;;;;;5073466;28;20205;-73
2023/07/03 03:20:28;;;;;;;17.00;8.77;;;22.80;55.50;;;;;;5046025;28;20217;-73
2023/07/03 03:22:57;;;;;;;13.27;8.93;;;22.80;55.60;;;;;;5040305;28;20681;-74
2023/07/03 03:25:24;;;;;;;15.53;9.20;;;22.90;55.70;;;;;;5040014;28;20250;-74
2023/07/03 03:27:51;;;;;;;13.00;8.60;;;22.90;55.50;;;;;;5039177;28;21929;-74
2023/07/03 03:30:18;;;;;;;15.10;9.30;;;23.00;55.50;;;;;;5039513;28;20217;-74
2023/07/03 03:32:45;;;;;;;14.37;8.80;;;22.90;55.50;;;;;;5053468;28;20292;-74
2023/07/03 03:35:11;;;;;;;15.33;8.70;;;22.90;55.70;;;;;;5039257;28;20311;-74
2023/07/03 03:37:38;;;;;;;14.73;8.47;;;22.80;56.20;;;;;;5041830;28;20513;-75
2023/07/03 03:40:09;;;;;;;14.90;8.40;;;22.80;55.90;;;;;;5039645;28;20205;-75
2023/07/03 03:42:36;;;;;;;11.07;7.47;;;22.80;56.00;;;;;;5041090;28;20195;-74
2023/07/03 03:45:03;;;;;;;12.80;8.33;;;22.70;56.20;;;;;;5038944;28;20198;-75
2023/07/03 03:47:30;;;;;;;14.60;7.70;;;22.70;56.30;;;;;;5038502;28;20546;-74
2023/07/03 03:49:57;;;;;;;11.53;8.40;;;22.80;56.30;;;;;;5036817;28;20677;-74
2023/07/03 03:52:24;;;;;;;12.17;8.03;;;22.80;56.10;;;;;;5040596;28;20222;-74
2023/07/03 03:54:51;;;;;;;11.63;7.90;;;22.70;56.40;;;;;;5041574;28;20202;-74
2023/07/03 03:57:19;;;;;;;13.27;8.03;;;22.80;56.60;;;;;;5038493;28;20589;-74
2023/07/03 03:59:46;;;;;;;15.00;9.03;;;22.70;56.60;;;;;;5038779;28;20218;-75
2023/07/03 04:02:13;;;;;;;13.67;8.97;;;22.70;56.80;;;;;;5040794;28;20217;-75
2023/07/03 04:04:40;;;;;;;13.70;8.40;;;22.60;56.90;;;;;;5039581;28;20194;-76
2023/07/03 04:07:07;;;;;;;15.67;9.27;;;22.60;57.10;;;;;;5039185;28;20203;-75
2023/07/03 04:09:33;;;;;;;15.50;9.13;;;22.60;57.30;;;;;;5038922;28;20231;-75
2023/07/03 04:12:00;;;;;;;13.70;8.63;;;22.60;57.30;;;;;;5039871;28;20220;-75
2023/07/03 04:14:28;;;;;;;11.70;8.30;;;22.70;57.50;;;;;;5038103;28;21129;-75
2023/07/03 04:16:57;;;;;;;18.87;8.67;;;22.60;57.50;;;;;;5038874;28;20203;-73
2023/07/03 04:19:24;;;;;;;12.27;8.37;;;22.70;57.60;;;;;;5035748;28;20680;-73
2023/07/03 04:21:51;;;;;;;14.50;8.33;;;22.60;57.50;;;;;;5048360;28;20181;-73
2023/07/03 04:24:18;;;;;;;15.87;9.07;;;22.50;57.60;;;;;;5051300;28;20214;-73
2023/07/03 04:26:45;;;;;;;14.47;8.47;;;22.30;57.70;;;;;;5051959;28;20213;-73
2023/07/03 04:29:12;;;;;;;12.17;7.77;;;22.40;57.90;;;;;;5057913;28;20204;-72
2023/07/03 04:31:40;;;;;;;14.63;7.93;;;22.40;57.80;;;;;;5065353;28;20225;-73
2023/07/03 04:34:07;;;;;;;13.23;8.57;;;22.40;57.70;;;;;;5070850;28;20201;-74
2023/07/03 04:36:34;;;;;;;14.10;8.13;;;22.40;57.70;;;;;;5072158;28;20211;-74
2023/07/03 04:39:00;;;;;;;13.93;7.80;;;22.50;57.70;;;;;;5064499;28;20271;-74
2023/07/03 04:41:29;;;;;;;13.43;8.23;;;22.50;57.60;;;;;;5055642;28;20273;-73
2023/07/03 04:43:57;;;;;;;12.33;7.90;;;22.40;57.50;;;;;;5055392;28;20210;-73
2023/07/03 04:46:26;;;;;;;12.57;8.70;;;22.50;57.50;;;;;;5068461;28;20256;-74
2023/07/03 04:48:59;;;;;;;12.60;8.07;;;22.50;57.20;;;;;;5036255;28;20218;-74
2023/07/03 04:51:26;;;;;;;14.97;7.87;;;22.50;57.00;;;;;;5039161;28;20693;-74
2023/07/03 04:53:53;;;;;;;11.73;7.97;;;22.50;57.00;;;;;;5040625;28;20213;-74
2023/07/03 04:56:20;;;;;;;14.90;8.50;;;22.60;57.60;;;;;;5038551;28;20214;-74
2023/07/03 04:58:47;;;;;;;14.17;7.97;;;22.50;56.80;;;;;;5042159;28;20560;-73
2023/07/03 05:01:14;;;;;;;12.27;7.43;;;22.60;57.00;;;;;;5036682;28;20207;-73
2023/07/03 05:03:41;;;;;;;12.73;7.37;;;22.70;57.00;;;;;;5043844;28;20202;-73
2023/07/03 05:06:10;;;;;;;17.53;8.03;;;22.70;56.80;;;;;;5038795;28;20229;-73
2023/07/03 05:08:37;;;;;;;11.97;7.80;;;22.70;57.30;;;;;;5038761;28;20222;-73
2023/07/03 05:11:04;;;;;;;17.73;8.37;;;22.80;56.60;;;;;;5040913;28;20198;-73
2023/07/03 05:13:31;;;;;;;13.47;7.10;;;22.90;57.30;;;;;;5037746;28;20206;-72
2023/07/03 05:15:58;;;;;;;13.67;7.63;;;22.90;56.60;;;;;;5037260;28;20217;-72
2023/07/03 05:18:24;;;;;;;10.70;6.97;;;22.90;56.60;;;;;;5039496;28;20202;-71
2023/07/03 05:20:51;;;;;;;13.93;7.83;;;22.90;56.30;;;;;;5037428;28;20198;-72
2023/07/03 05:23:20;;;;;;;14.50;7.63;;;22.90;56.60;;;;;;5038963;28;20217;-72
2023/07/03 05:25:47;;;;;;;12.33;7.27;;;22.90;56.80;;;;;;5036686;28;20202;-71
2023/07/03 05:28:14;;;;;;;13.73;7.83;;;22.90;56.60;;;;;;5045507;28;20202;-72
2023/07/03 05:30:41;;;;;;;12.37;7.00;;;22.90;57.10;;;;;;5039723;28;20205;-71
2023/07/03 05:33:10;;;;;;;18.43;8.03;;;22.80;56.40;;;;;;5038449;28;20236;-73
2023/07/03 05:35:37;;;;;;;15.00;8.03;;;22.80;56.60;;;;;;5046119;28;20324;-73
2023/07/03 05:38:04;;;;;;;16.53;8.27;;;22.60;57.00;;;;;;5037293;28;20209;-72
2023/07/03 05:40:32;;;;;;;14.40;7.83;;;22.60;57.00;;;;;;5036858;28;20744;-72
2023/07/03 05:42:59;;;;;;;12.37;7.23;;;22.70;57.30;;;;;;5053570;28;20708;-72
2023/07/03 05:45:26;;;;;;;13.17;7.37;;;22.80;57.80;;;;;;5048911;28;20209;-72
2023/07/03 05:47:53;;;;;;;14.43;7.43;;;22.80;57.00;;;;;;5048671;28;20201;-72
2023/07/03 05:50:19;;;;;;;13.60;7.43;;;22.90;57.10;;;;;;5043824;28;20317;-73
2023/07/03 05:52:46;;;;;;;13.53;7.27;;;22.90;56.80;;;;;;5049343;28;20222;-73
2023/07/03 05:55:13;;;;;;;12.57;6.80;;;22.80;57.00;;;;;;5046839;28;20228;-74
2023/07/03 05:57:41;;;;;;;12.60;7.20;;;22.90;57.00;;;;;;5045949;28;20198;-74
2023/07/03 06:00:13;;;;;;;13.87;7.80;;;23.00;57.20;;;;;;5054051;28;20685;-72
2023/07/03 06:02:41;;;;;;;12.30;6.60;;;23.10;56.80;;;;;;5060845;28;20189;-73
2023/07/03 06:05:10;;;;;;;12.27;6.77;;;23.10;56.10;;;;;;5042921;28;20210;-72
2023/07/03 06:07:38;;;;;;;12.33;7.50;;;23.00;55.80;;;;;;5043460;28;20677;-73
2023/07/03 06:10:07;;;;;;;12.77;6.97;;;22.90;55.70;;;;;;5051595;28;20274;-72
2023/07/03 06:12:33;;;;;;;14.00;6.37;;;22.80;55.90;;;;;;5063707;28;20225;-72
2023/07/03 06:15:02;;;;;;;10.80;6.90;;;22.80;55.60;;;;;;5065135;28;20205;-71
2023/07/03 06:17:30;;;;;;;9.63;6.07;;;23.00;55.50;;;;;;5056001;28;20201;-71
2023/07/03 06:19:57;;;;;;;10.83;5.93;;;22.90;55.50;;;;;;5070396;28;20241;-72
2023/07/03 06:22:24;;;;;;;11.43;6.50;;;23.00;55.10;;;;;;5067669;28;20217;-73
2023/07/03 06:24:51;;;;;;;13.13;6.30;;;23.10;55.00;;;;;;5049410;28;20660;-71
2023/07/03 06:27:18;;;;;;;12.20;6.10;;;23.10;54.40;;;;;;5048706;28;20228;-72
2023/07/03 06:29:45;;;;;;;14.83;6.67;;;23.00;54.10;;;;;;5050159;28;20657;-72
2023/07/03 06:32:14;;;;;;;14.40;6.73;;;22.90;54.60;;;;;;5049952;28;20225;-71
2023/07/03 06:34:40;;;;;;;9.67;5.83;;;23.00;54.70;;;;;;5050184;28;20193;-71
2023/07/03 06:37:07;;;;;;;11.97;6.60;;;23.10;55.10;;;;;;5056757;28;20559;-72
2023/07/03 06:39:34;;;;;;;11.70;6.30;;;23.10;54.20;;;;;;5048260;28;20224;-72
2023/07/03 06:42:03;;;;;;;12.00;6.73;;;22.90;54.60;;;;;;5032585;28;20635;-72
2023/07/03 06:44:29;;;;;;;12.23;6.10;;;22.80;54.80;;;;;;5050068;28;20237;-72
2023/07/03 06:46:56;;;;;;;10.20;5.87;;;22.80;54.90;;;;;;5051598;28;20197;-72
2023/07/03 06:49:25;;;;;;;12.83;6.90;;;22.80;55.30;;;;;;5053262;28;20205;-71
2023/07/03 06:51:52;;;;;;;10.93;6.27;;;22.90;54.60;;;;;;5036254;28;20689;-72
2023/07/03 06:54:19;;;;;;;11.30;6.07;;;22.90;54.60;;;;;;5060348;28;20201;-73
2023/07/03 06:56:46;;;;;;;9.60;6.00;;;22.90;54.70;;;;;;5050087;28;20757;-72
2023/07/03 06:59:13;;;;;;;13.00;6.03;;;22.90;54.50;;;;;;5053750;28;20212;-71
2023/07/03 07:01:41;;;;;;;12.50;5.70;;;22.80;54.40;;;;;;5052383;28;20208;-73
2023/07/03 07:04:08;;;;;;;9.90;5.90;;;22.80;54.40;;;;;;5057012;28;20201;-74
2023/07/03 07:06:36;;;;;;;11.83;5.90;;;22.80;54.30;;;;;;5050460;28;20209;-76
2023/07/03 07:09:04;;;;;;;10.77;5.17;;;22.90;54.60;;;;;;5049047;28;20230;-73
2023/07/03 07:11:34;;;;;;;10.43;4.70;;;22.90;53.80;;;;;;5049183;28;20214;-74
2023/07/03 07:14:02;;;;;;;9.67;5.83;;;23.10;54.20;;;;;;5056912;28;20209;-74
2023/07/03 07:16:31;;;;;;;9.47;5.00;;;23.20;53.80;;;;;;5049562;28;20213;-75
2023/07/03 07:19:06;;;;;;;11.33;5.30;;;23.30;53.60;;;;;;5052089;28;20213;-74
2023/07/03 07:21:36;;;;;;;8.33;5.03;;;23.30;53.30;;;;;;5053499;28;20206;-74
2023/07/03 07:24:14;;;;;;;10.67;4.90;;;23.20;53.20;;;;;;5054088;28;20903;-74
2023/07/03 07:26:41;;;;;;;8.77;4.53;;;23.20;53.70;;;;;;5051738;28;20224;-74
2023/07/03 07:29:08;;;;;;;13.03;5.23;;;23.30;53.60;;;;;;5053329;28;20227;-74
2023/07/03 07:31:36;;;;;;;10.17;5.03;;;23.40;53.30;;;;;;5049115;28;20210;-71
2023/07/03 07:34:04;;;;;;;10.57;4.47;;;23.50;53.50;;;;;;5072759;28;20308;-73
2023/07/03 07:36:31;;;;;;;7.43;4.80;;;23.60;53.10;;;;;;5067538;28;20218;-73
2023/07/03 07:39:00;;;;;;;8.07;4.77;;;23.80;53.10;;;;;;5051826;28;20288;-73
2023/07/03 07:41:29;;;;;;;10.03;4.40;;;23.80;52.60;;;;;;5050336;28;20212;-73
2023/07/03 07:43:58;;;;;;;10.80;4.80;;;23.70;52.40;;;;;;5054188;28;20657;-73
2023/07/03 07:46:28;;;;;;;8.53;4.40;;;23.70;52.40;;;;;;5048754;28;20210;-74
2023/07/03 07:48:56;;;;;;;10.27;4.40;;;23.70;52.40;;;;;;5047126;28;20209;-72
2023/07/03 07:51:24;;;;;;;11.67;5.53;;;23.70;52.90;;;;;;5052340;28;20667;-73
2023/07/03 07:53:51;;;;;;;10.63;5.23;;;23.80;52.70;;;;;;5048667;28;20832;-73
2023/07/03 07:56:18;;;;;;;12.63;4.73;;;24.00;52.60;;;;;;5051893;28;20208;-73
2023/07/03 07:58:46;;;;;;;9.60;4.60;;;24.00;52.30;;;;;;5048834;28;20232;-73
2023/07/03 08:01:14;;;;;;;8.90;3.90;;;24.00;51.80;;;;;;5038759;28;20218;-73
2023/07/03 08:03:43;;;;;;;6.77;4.50;;;24.10;52.30;;;;;;5048453;28;20202;-71
2023/07/03 08:06:10;;;;;;;9.97;4.60;;;24.10;52.00;;;;;;5045867;28;20233;-73
2023/07/03 08:08:37;;;;;;;5.47;3.50;;;24.20;52.40;;;;;;5041514;28;20731;-73
2023/07/03 08:11:06;;;;;;;9.20;4.07;;;24.10;50.70;;;;;;5047520;28;20209;-72
2023/07/03 08:13:35;;;;;;;8.50;3.60;;;24.10;51.30;;;;;;5047528;28;20225;-73
2023/07/03 08:16:03;;;;;;;8.20;3.70;;;24.20;51.60;;;;;;5043844;28;20540;-74
2023/07/03 08:18:30;;;;;;;5.77;3.30;;;24.30;50.70;;;;;;5047744;28;20214;-73
2023/07/03 08:20:57;;;;;;;6.47;3.23;;;24.20;50.50;;;;;;5050469;28;20253;-73
2023/07/03 08:23:24;;;;;;;7.37;3.37;;;24.20;50.90;;;;;;5052527;28;20216;-73
2023/07/03 08:25:52;;;;;;;8.67;3.70;;;24.30;50.70;;;;;;5049343;28;20705;-74
2023/07/03 08:28:19;;;;;;;7.80;4.00;;;24.40;51.10;;;;;;5049384;28;20219;-72
2023/07/03 08:30:46;;;;;;;7.90;4.10;;;24.70;50.80;;;;;;5055763;28;20202;-71
2023/07/03 08:33:15;;;;;;;6.83;3.80;;;24.70;49.90;;;;;;5056072;28;20283;-72
2023/07/03 08:35:42;;;;;;;6.80;3.90;;;24.70;50.40;;;;;;5039193;28;20202;-71
2023/07/03 08:38:10;;;;;;;7.30;3.60;;;24.80;50.60;;;;;;5032115;28;20212;-71
2023/07/03 08:40:37;;;;;;;6.13;4.03;;;24.80;50.30;;;;;;5051493;28;20212;-72
2023/07/03 08:43:06;;;;;;;6.40;3.57;;;24.90;50.80;;;;;;5058358;28;20574;-72
2023/07/03 08:45:37;;;;;;;9.03;4.33;;;24.90;49.90;;;;;;5051294;28;20569;-71
2023/07/03 08:48:10;;;;;;;10.57;4.57;;;24.70;50.40;;;;;;5031938;28;20643;-72
2023/07/03 08:50:42;;;;;;;7.17;3.73;;;24.80;50.10;;;;;;5036937;28;20231;-71
2023/07/03 08:53:12;;;;;;;7.20;3.30;;;24.80;50.10;;;;;;5033530;28;20599;-72
2023/07/03 08:55:57;;;;;;;8.50;3.87;;;24.90;50.40;;;;;;5031952;28;20191;-71
2023/07/03 08:58:26;;;;;;;6.90;3.77;;;25.00;50.60;;;;;;5043963;28;20202;-72
2023/07/03 09:01:02;;;;;;;9.20;3.80;;;25.20;50.20;;;;;;5041276;28;20227;-72
2023/07/03 09:03:38;;;;;;;7.33;3.77;;;25.40;50.20;;;;;;5059189;28;20619;-72
2023/07/03 09:06:16;;;;;;;6.83;3.33;;;25.50;50.00;;;;;;5050775;28;20679;-73
2023/07/03 09:08:56;;;;;;;7.63;3.77;;;25.50;49.20;;;;;;5047058;28;20213;-72
2023/07/03 09:11:26;;;;;;;10.87;4.20;;;25.50;49.20;;;;;;5050379;28;20200;-73
2023/07/03 09:13:55;;;;;;;8.70;3.50;;;25.40;48.70;;;;;;5050212;28;20363;-71
2023/07/03 09:16:24;;;;;;;7.33;3.40;;;25.40;49.30;;;;;;5046185;28;20312;-71
2023/07/03 09:18:54;;;;;;;7.43;3.60;;;25.40;48.50;;;;;;5035498;28;20238;-71
2023/07/03 09:21:26;;;;;;;8.73;3.40;;;25.50;49.20;;;;;;5057895;28;20216;-72
2023/07/03 09:23:58;;;;;;;7.80;3.60;;;25.50;48.40;;;;;;5066027;28;20230;-71
2023/07/03 09:26:32;;;;;;;7.03;3.50;;;25.50;48.50;;;;;;5049479;28;20268;-71
2023/07/03 09:29:00;;;;;;;7.83;2.90;;;25.70;47.90;;;;;;5046331;28;20217;-72
2023/07/03 09:31:28;;;;;;;6.43;3.40;;;25.50;48.00;;;;;;5042358;28;20202;-72
2023/07/03 09:33:55;;;;;;;6.77;3.43;;;25.40;48.10;;;;;;5040644;28;20227;-71
2023/07/03 09:36:30;;;;;;;8.73;3.43;;;25.30;48.30;;;;;;5032334;28;20573;-72
2023/07/03 09:38:57;;;;;;;5.57;2.97;;;25.20;48.40;;;;;;5046450;28;20645;-71
2023/07/03 09:41:30;;;;;;;6.87;3.20;;;25.10;48.90;;;;;;5058260;28;20359;-71
2023/07/03 09:43:57;;;;;;;4.93;3.00;;;25.10;48.90;;;;;;5035738;28;20326;-72
2023/07/03 09:46:24;;;;;;;5.17;2.67;;;25.10;48.50;;;;;;5033427;28;20198;-70
2023/07/03 09:48:52;;;;;;;5.50;2.93;;;25.10;49.00;;;;;;5048879;28;20296;-72
2023/07/03 09:51:29;;;;;;;5.90;3.20;;;25.10;49.00;;;;;;5044269;28;20204;-73
2023/07/03 09:53:58;;;;;;;6.03;3.10;;;25.30;48.80;;;;;;5067812;28;20251;-72
2023/07/03 09:56:29;;;;;;;4.60;2.73;;;25.40;48.60;;;;;;5047839;28;20216;-71
2023/07/03 09:59:01;;;;;;;7.63;3.13;;;25.40;48.40;;;;;;5039737;28;20199;-71
2023/07/03 10:01:30;;;;;;;6.93;3.20;;;25.40;48.50;;;;;;5043041;28;20220;-72
2023/07/03 10:04:04;;;;;;;4.53;2.80;;;25.20;48.80;;;;;;5052940;28;20212;-72
2023/07/03 10:06:33;;;;;;;5.13;2.70;;;25.20;49.00;;;;;;5049345;28;20292;-72
2023/07/03 10:09:02;;;;;;;6.87;2.90;;;25.30;49.40;;;;;;5051731;28;20229;-72
2023/07/03 10:11:41;;;;;;;3.67;2.20;;;25.40;49.10;;;;;;5047585;28;20710;-72
2023/07/03 10:14:13;;;;;;;7.03;3.07;;;25.40;48.10;;;;;;5052818;28;20210;-72
2023/07/03 10:16:42;;;;;;;9.10;2.90;;;25.40;48.60;;;;;;5048530;28;20206;-71
2023/07/03 10:19:10;;;;;;;5.47;2.60;;;25.40;48.60;;;;;;5046656;28;20736;-72
2023/07/03 10:21:40;;;;;;;5.10;2.40;;;25.50;49.20;;;;;;5036527;28;20297;-72
2023/07/03 10:24:09;;;;;;;4.93;2.57;;;25.60;47.80;;;;;;5041239;28;20210;-71
2023/07/03 10:26:43;;;;;;;3.60;1.93;;;25.50;47.90;;;;;;5044049;28;20214;-70
2023/07/03 10:29:16;;;;;;;6.27;2.90;;;25.40;47.90;;;;;;5047005;28;20549;-72
2023/07/03 10:31:49;;;;;;;4.13;2.33;;;25.40;48.40;;;;;;5049676;28;20238;-72
2023/07/03 10:34:22;;;;;;;3.87;2.37;;;25.50;48.40;;;;;;5049450;28;20209;-71
2023/07/03 10:36:59;;;;;;;3.23;2.10;;;25.60;48.60;;;;;;5050238;28;20190;-70
2023/07/03 10:39:36;;;;;;;3.90;2.13;;;25.70;48.20;;;;;;5045201;28;20209;-71
2023/07/03 10:42:06;;;;;;;6.13;2.00;;;25.80;47.30;;;;;;5035594;28;20675;-71
2023/07/03 10:44:37;;;;;;;4.07;2.30;;;25.60;47.60;;;;;;5049374;28;20184;-71
2023/07/03 10:47:16;;;;;;;4.57;1.90;;;25.70;48.90;;;;;;5030467;28;20281;-71
2023/07/03 10:49:43;;;;;;;4.27;2.50;;;25.80;48.10;;;;;;5038858;28;20217;-71
2023/07/03 10:52:19;;;;;;;4.67;2.53;;;25.80;47.80;;;;;;5052489;28;20209;-73
2023/07/03 10:54:54;;;;;;;4.53;2.40;;;25.70;47.70;;;;;;5054258;28;20217;-72
2023/07/03 10:57:27;;;;;;;3.67;2.13;;;25.70;47.90;;;;;;5032231;28;20209;-72
2023/07/03 10:59:57;;;;;;;6.50;2.57;;;25.80;48.20;;;;;;5036100;28;20307;-72
2023/07/03 11:02:34;;;;;;;5.80;2.60;;;25.90;48.30;;;;;;5039807;28;20194;-72
2023/07/03 11:05:09;;;;;;;4.03;2.50;;;25.90;48.20;;;;;;5041194;28;20200;-71
2023/07/03 11:07:45;;;;;;;4.13;2.50;;;26.00;48.00;;;;;;5032956;28;20211;-73
2023/07/03 11:10:32;;;;;;;5.30;2.50;;;26.00;48.00;;;;;;5030233;28;20226;-73
2023/07/03 11:13:05;;;;;;;4.97;2.30;;;26.20;48.00;;;;;;5047414;28;20224;-73
2023/07/03 11:15:40;;;;;;;3.70;2.53;;;26.10;47.90;;;;;;5054866;28;20206;-72
2023/07/03 11:18:23;;;;;;;5.80;2.80;;;26.00;47.50;;;;;;5037755;28;20269;-72
2023/07/03 11:20:58;;;;;;;5.10;2.63;;;26.10;47.90;;;;;;5037771;28;20247;-72
2023/07/03 11:23:35;;;;;;;3.70;2.10;;;26.20;47.90;;;;;;5035986;28;20664;-71
2023/07/03 11:26:11;;;;;;;3.40;1.90;;;26.40;46.50;;;;;;5038138;28;20210;-71
2023/07/03 11:28:43;;;;;;;3.57;2.20;;;26.30;45.90;;;;;;5045568;28;20600;-71
2023/07/03 11:31:14;;;;;;;2.77;1.73;;;26.30;46.70;;;;;;5049782;28;20217;-71
2023/07/03 11:33:43;;;;;;;4.00;1.93;;;26.50;46.80;;;;;;5051152;28;20248;-72
2023/07/03 11:36:35;;;;;;;4.03;1.87;;;26.60;45.80;;;;;;5042915;28;20556;-70
2023/07/03 11:39:19;;;;;;;3.27;1.90;;;26.60;46.10;;;;;;5041731;28;20604;-71
2023/07/03 11:41:50;;;;;;;2.13;1.70;;;26.80;46.10;;;;;;5051754;28;20670;-71
2023/07/03 11:44:19;;;;;;;2.83;1.60;;;27.00;45.70;;;;;;5047108;28;20197;-72
2023/07/03 11:46:52;;;;;;;2.77;1.63;;;26.90;44.80;;;;;;5042643;28;20314;-72
2023/07/03 11:49:19;;;;;;;3.40;1.80;;;26.70;45.40;;;;;;5051587;28;20634;-73
2023/07/03 11:51:46;;;;;;;4.20;1.90;;;26.70;45.50;;;;;;5053401;28;20203;-72
2023/07/03 11:54:19;;;;;;;3.43;1.67;;;26.70;46.00;;;;;;5053296;28;20351;-72
2023/07/03 11:56:54;;;;;;;2.90;1.80;;;26.80;45.80;;;;;;5027734;28;20205;-71
2023/07/03 11:59:33;;;;;;;3.00;1.50;;;26.80;45.50;;;;;;5046632;28;20586;-72
2023/07/03 12:02:46;;;;;;;3.10;2.00;;;26.80;45.60;;;;;;5049869;28;20268;-73
2023/07/03 12:05:51;;;;;;;4.67;1.70;;;26.80;45.60;;;;;;5047012;28;20200;-72
2023/07/03 12:08:47;;;;;;;2.67;1.60;;;26.90;45.70;;;;;;5043831;28;20221;-72
2023/07/03 12:11:16;;;;;;;4.37;1.97;;;26.90;45.90;;;;;;5041949;28;20216;-71
2023/07/03 12:13:51;;;;;;;2.63;1.80;;;26.70;45.70;;;;;;5062218;28;20232;-72
2023/07/03 12:16:20;;;;;;;3.17;1.80;;;26.60;46.30;;;;;;5045169;28;20305;-72
2023/07/03 12:18:56;;;;;;;5.27;2.10;;;26.60;46.30;;;;;;5040798;28;20201;-73
2023/07/03 12:21:23;;;;;;;1.77;1.53;;;26.80;46.30;;;;;;5033483;28;20234;-72
2023/07/03 12:23:52;;;;;;;3.83;2.00;;;26.90;46.40;;;;;;5047385;28;20213;-71
2023/07/03 12:26:21;;;;;;;3.27;1.80;;;27.10;46.30;;;;;;5038720;28;20213;-72
2023/07/03 12:28:48;;;;;;;2.83;2.00;;;27.30;45.90;;;;;;5048467;28;20234;-73
2023/07/03 12:31:19;;;;;;;2.60;1.70;;;27.30;45.70;;;;;;5044235;28;20207;-71
2023/07/03 12:33:51;;;;;;;2.23;1.60;;;27.40;46.00;;;;;;5058261;28;20233;-71
2023/07/03 12:36:28;;;;;;;2.67;1.67;;;27.30;45.70;;;;;;5048933;28;20203;-71
2023/07/03 12:38:57;;;;;;;2.90;1.87;;;27.10;45.80;;;;;;5049350;28;20222;-72
2023/07/03 12:41:28;;;;;;;2.00;1.60;;;26.90;46.40;;;;;;5034140;28;20227;-72
2023/07/03 12:43:56;;;;;;;2.47;1.80;;;26.80;46.50;;;;;;5048726;28;20199;-75
2023/07/03 12:46:31;;;;;;;5.10;1.70;;;26.90;46.80;;;;;;5048924;28;20294;-71
2023/07/03 12:49:06;;;;;;;3.87;1.43;;;26.70;46.40;;;;;;5037213;28;20225;-74
2023/07/03 12:51:39;;;;;;;1.63;1.53;;;26.60;47.00;;;;;;5059931;28;20204;-73
2023/07/03 12:54:06;;;;;;;2.43;1.60;;;26.40;47.10;;;;;;5054064;28;20358;-72